Latest Weather Observations for Oakey

IDQ60801

Issued at 6:52 am EST Wednesday 23 January 2019 (issued every 10 minutes, with the page automatically refreshed every 10 minutes)

About weather observations | Map of weather stations | Latest weather observations for QLD | Other Formats
Station Details ID: 041359 Name: OAKEY AERO Lat: -27.40 Lon: 151.74 Height: 405.69 m
Data from the previous 72 hours. | See also: Recent months at Oakey
Date/Time
EST
Temp
°C
App
Temp
°C
Dew
Point
°C
Rel
Hum
%
Delta-T
°C
Wind Press
QNH
hPa
Press
MSL
hPa
Rain since
9am
mm
Dir  Spd
km/h
Gust
km/h
Spd
kts
Gust
kts
23/06:30am 21.5 21.8 17.9 80 2.3 ENE 13 17 7 9 1016.0 1013.6 0.0
23/06:00am 19.7 20.5 17.3 86 1.5 ESE 9 13 5 7 1016.0 1013.6 0.0
23/05:30am 18.8 19.9 16.6 87 1.3 ESE 6 7 3 4 1015.7 1013.3 0.0
23/05:00am 19.4 19.6 17.7 90 1.1 ENE 13 13 7 7 1015.0 1012.7 0.0
23/04:30am 19.0 18.8 16.8 87 1.4 ENE 13 15 7 8 1015.0 1012.7 0.0
23/04:00am 19.2 20.1 16.6 85 1.6 SE 7 9 4 5 1015.2 1012.9 0.0
23/03:30am 19.5 20.4 16.5 83 1.8 E 7 9 4 5 1015.2 1012.9 0.0
23/03:00am 20.3 21.5 17.3 83 1.9 E 7 9 4 5 1015.1 1012.8 0.0
23/02:30am 20.7 22.0 17.5 82 2.0 E 7 11 4 6 1015.1 1012.8 0.0
23/02:00am 21.3 21.2 17.9 81 2.1 ENE 15 19 8 10 1015.2 1012.9 0.0
23/01:30am 21.7 21.3 18.1 80 2.3 NE 17 22 9 12 1015.1 1012.8 0.0
23/01:00am 22.1 22.2 18.3 79 2.4 NE 15 19 8 10 1016.1 1013.7 0.0
23/12:30am 22.4 22.2 18.4 78 2.6 NE 17 20 9 11 1016.2 1013.9 0.0
23/12:00am 22.6 22.5 17.9 75 3.0 NE 15 20 8 11 1016.1 1013.7 0.0
 
Date/Time
EST
Temp
°C
App
Temp
°C
Dew
Point
°C
Rel
Hum
%
Delta-T
°C
Wind Press
QNH
hPa
Press
MSL
hPa
Rain since
9am
mm
Dir  Spd
km/h
Gust
km/h
Spd
kts
Gust
kts
22/11:30pm 23.1 21.6 17.8 72 3.4 NE 22 28 12 15 1016.2 1013.9 0.0
22/11:00pm 23.6 22.8 18.5 73 3.3 ENE 20 30 11 16 1016.9 1014.6 0.0
22/10:30pm 24.2 23.4 18.4 70 3.7 ENE 20 26 11 14 1017.3 1015.0 0.0
22/10:00pm 24.8 23.1 18.0 66 4.3 E 24 32 13 17 1017.6 1015.3 0.0
22/09:30pm 25.4 23.5 17.6 62 5.0 E 24 32 13 17 1017.7 1015.4 0.0
22/09:00pm 26.2 23.4 17.3 58 5.6 ENE 28 37 15 20 1017.5 1015.2 0.0
22/08:30pm 26.9 24.8 17.1 55 6.2 ENE 24 35 13 19 1017.2 1014.9 0.0
22/08:00pm 27.7 25.5 16.9 51 6.8 ENE 24 32 13 17 1016.7 1014.4 0.0
22/07:30pm 28.5 25.8 16.7 48 7.5 ENE 26 32 14 17 1016.4 1014.1 0.0
22/07:00pm 29.3 26.6 16.5 46 8.1 NE 26 35 14 19 1016.0 1013.6 0.0
22/06:30pm 30.4 27.1 16.0 41 9.1 ENE 28 35 15 19 1015.4 1013.1 0.0
22/06:00pm 31.6 28.5 15.5 37 10.1 ENE 26 32 14 17 1015.1 1012.8 0.0
22/05:30pm 32.3 30.0 15.7 36 10.5 ENE 22 35 12 19 1014.6 1012.3 0.0
22/05:00pm 32.8 30.2 15.8 36 10.8 ENE 24 35 13 19 1014.3 1012.0 0.0
22/04:30pm 33.6 31.6 15.6 34 11.4 ENE 20 39 11 21 1014.1 1011.8 0.0
22/04:00pm 33.5 31.1 15.5 34 11.4 NE 22 35 12 19 1014.0 1011.7 0.0
22/03:30pm 33.4 30.8 14.9 32 11.6 NE 22 32 12 17 1014.2 1011.9 0.0
22/03:00pm 34.6 33.1 16.4 33 11.7 NE 19 32 10 17 1014.4 1012.1 0.0
22/02:30pm 33.8 32.1 15.7 33 11.5 ENE 19 30 10 16 1014.8 1012.5 0.0
22/02:00pm 34.1 32.9 16.0 34 11.6 ENE 17 28 9 15 1015.2 1012.9 0.0
22/01:30pm 32.9 31.3 15.0 34 11.2 ENE 17 28 9 15 1015.8 1013.4 0.0
22/01:00pm 33.0 31.4 15.9 35 10.9 NE 19 26 10 14 1016.2 1013.9 0.0
22/12:30pm 32.3 31.1 16.2 38 10.3 NNE 17 26 9 14 1016.7 1014.4 0.0
22/12:00pm 30.9 29.4 15.3 38 9.8 E 17 30 9 16 1017.2 1014.9 0.0
22/11:30am 30.4 28.9 15.3 40 9.4 E 17 30 9 16 1017.8 1015.5 0.0
22/11:00am 30.4 29.1 15.7 41 9.2 E 17 32 9 17 1018.0 1015.7 0.0
22/10:30am 29.4 27.5 15.1 41 8.9 NE 19 30 10 16 1018.4 1016.1 0.0
22/10:00am 29.5 27.8 16.3 45 8.3 ENE 20 32 11 17 1018.6 1016.3 0.0
22/09:30am 28.0 26.8 16.0 48 7.5 ENE 17 24 9 13 1018.7 1016.4 0.0
22/09:00am 26.6 25.2 16.5 54 6.3 E 19 30 10 16 1018.7 1016.4 0.0
22/08:30am 25.9 23.8 16.2 55 6.1 E 22 28 12 15 1018.7 1016.4 0.0
22/08:00am 25.0 23.6 17.0 61 5.0 E 20 28 11 15 1018.8 1016.5 0.0
22/07:30am 24.2 23.3 17.7 67 4.1 E 19 24 10 13 1018.8 1016.5 0.0
22/07:00am 23.3 23.3 18.0 72 3.4 E 15 20 8 11 1018.8 1016.5 0.0
22/06:30am 22.2 22.1 17.8 76 2.8 E 15 19 8 10 1018.5 1016.2 0.0
22/06:00am 21.1 21.7 17.7 81 2.1 E 11 13 6 7 1018.3 1015.9 0.0
22/05:30am 20.4 20.7 17.0 81 2.1 ENE 11 13 6 7 1018.2 1015.8 0.0
22/05:00am 21.0 20.2 17.2 79 2.4 ENE 17 20 9 11 1017.9 1015.6 0.0
22/04:30am 21.3 21.9 17.7 80 2.3 ENE 11 19 6 10 1017.9 1015.6 0.0
22/04:00am 21.4 22.5 18.0 81 2.1 ESE 9 11 5 6 1017.7 1015.4 0.0
22/03:30am 20.9 22.0 17.9 83 1.9 ESE 9 11 5 6 1017.5 1015.2 0.0
22/03:00am 20.4 21.5 17.2 82 2.0 SE 7 13 4 7 1017.6 1015.3 0.0
22/02:30am 21.2 20.1 17.8 81 2.1 ENE 20 28 11 15 1017.3 1015.0 0.0
22/02:00am 20.8 20.8 17.2 80 2.2 E 13 17 7 9 1017.3 1015.0 0.0
22/01:30am 21.2 20.9 17.4 79 2.4 E 15 19 8 10 1017.5 1015.2 0.0
22/01:00am 21.3 21.0 17.3 78 2.5 E 15 19 8 10 1017.8 1015.5 0.0
22/12:30am 21.6 20.9 17.4 77 2.6 ENE 17 24 9 13 1018.2 1015.8 0.0
22/12:00am 21.9 20.7 17.5 76 2.8 ENE 20 26 11 14 1018.4 1016.1 0.0
 
Date/Time
EST
Temp
°C
App
Temp
°C
Dew
Point
°C
Rel
Hum
%
Delta-T
°C
Wind Press
QNH
hPa
Press
MSL
hPa
Rain since
9am
mm
Dir  Spd
km/h
Gust
km/h
Spd
kts
Gust
kts
21/11:30pm 22.3 21.1 17.4 74 3.1 ENE 20 26 11 14 1018.7 1016.4 0.0
21/11:00pm 22.6 21.3 17.3 72 3.3 ENE 20 24 11 13 1019.3 1017.0 0.0
21/10:30pm 23.2 22.1 17.4 70 3.7 ENE 19 24 10 13 1019.5 1017.2 0.0
21/10:00pm 23.6 22.3 17.3 67 4.0 E 20 28 11 15 1019.7 1017.4 0.0
21/09:30pm 24.0 20.4 17.3 66 4.2 E 32 41 17 22 1019.4 1017.1 0.0
21/09:00pm 24.6 21.8 18.1 67 4.1 E 30 41 16 22 1019.1 1016.8 0.0
21/08:30pm 25.5 23.5 17.4 61 5.1 ENE 24 32 13 17 1018.7 1016.4 0.0
21/08:00pm 26.5 23.5 16.7 55 6.2 ENE 28 37 15 20 1018.3 1015.9 0.0
21/07:30pm 27.3 23.6 16.0 50 7.1 ENE 30 37 16 20 1017.4 1015.1 0.0
21/07:00pm 28.4 24.3 15.0 44 8.3 ENE 30 39 16 21 1016.8 1014.5 0.0
21/06:30pm 29.8 25.5 14.4 39 9.5 ENE 30 37 16 20 1016.5 1014.2 0.0
21/06:00pm 31.4 27.9 14.5 35 10.5 E 26 33 14 18 1016.0 1013.6 0.0
21/05:30pm 32.3 29.2 14.4 33 11.1 E 24 35 13 19 1015.6 1013.2 0.0
21/05:00pm 33.3 30.1 15.3 34 11.4 E 26 35 14 19 1015.1 1012.8 0.0
21/04:30pm 33.5 30.8 14.5 31 11.9 E 22 33 12 18 1014.8 1012.5 0.0
21/04:00pm 33.8 30.8 14.8 32 11.9 E 24 35 13 19 1014.8 1012.5 0.0
21/03:30pm 33.4 30.1 14.0 31 12.0 E 24 41 13 22 1014.8 1012.5 0.0
21/03:00pm 34.8 32.9 15.2 31 12.4 ESE 19 30 10 16 1015.0 1012.7 0.0
21/02:30pm 34.2 31.9 14.7 31 12.2 E 20 30 11 16 1015.4 1013.1 0.0
21/02:00pm 33.7 31.4 14.7 32 11.9 E 20 35 11 19 1015.7 1013.3 0.0
21/01:30pm 33.5 32.3 15.0 32 11.6 NE 15 30 8 16 1016.2 1013.9 0.0
21/01:00pm 32.5 31.8 15.5 36 10.7 NE 13 22 7 12 1016.5 1014.2 0.0
21/12:30pm 32.0 31.0 14.6 34 10.8 ENE 13 28 7 15 1016.9 1014.6 0.0
21/12:00pm 30.8 28.6 14.4 36 10.1 ESE 19 30 10 16 1017.4 1015.1 0.0
21/11:30am 31.3 29.8 15.3 38 10.0 E 17 28 9 15 1017.8 1015.5 0.0
21/11:00am 29.7 27.9 15.4 42 8.9 ESE 19 30 10 16 1018.0 1015.7 0.0
21/10:30am 29.1 26.7 14.5 41 9.0 E 20 32 11 17 1018.0 1015.7 0.0
21/10:00am 28.9 26.5 16.5 47 7.8 ENE 24 39 13 21 1017.8 1015.5 0.0
21/09:30am 27.5 25.0 16.1 49 7.1 E 24 35 13 19 1018.4 1016.1 0.0
21/09:00am 26.8 25.0 17.0 55 6.2 E 22 35 12 19 1018.7 1016.4 0.0
21/08:30am 26.2 24.7 17.6 59 5.5 ESE 22 35 12 19 1018.8 1016.5 0.0
21/08:00am 25.2 24.2 17.9 64 4.7 E 20 30 11 16 1018.8 1016.5 0.0
21/07:30am 25.2 23.0 17.9 64 4.7 E 26 33 14 18 1018.6 1016.3 0.0
21/07:00am 24.0 22.4 18.4 71 3.6 E 24 32 13 17 1018.6 1016.3 0.0
21/06:30am 23.1 22.2 18.2 74 3.1 ENE 20 30 11 16 1018.3 1015.9 0.0
21/06:00am 22.6 22.3 18.2 76 2.8 E 17 22 9 12 1018.0 1015.7 0.0
21/05:30am 22.1 22.5 18.1 78 2.5 E 13 15 7 8 1018.0 1015.7 0.0
21/05:00am 21.7 22.9 18.3 81 2.2 E 9 11 5 6 1017.9 1015.6 0.0
21/04:30am 21.8 23.4 18.2 80 2.3 E 7 9 4 5 1017.6 1015.3 0.0
21/04:00am 21.4 22.6 18.2 82 2.0 E 9 11 5 6 1017.5 1015.2 0.0
21/03:30am 20.5 21.6 17.9 85 1.6 E 9 11 5 6 1017.3 1015.0 0.0
21/03:00am 20.4 20.9 17.4 83 1.9 E 11 13 6 7 1017.4 1015.1 0.0
21/02:30am 21.1 21.3 17.7 81 2.1 ENE 13 19 7 10 1017.5 1015.2 0.0
21/02:00am 21.6 21.4 17.6 78 2.5 ENE 15 19 8 10 1017.9 1015.6 0.0
21/01:30am 20.8 21.4 16.8 78 2.5 ESE 9 13 5 7 1018.4 1016.1 0.0
21/01:00am 21.5 21.4 16.9 75 2.9 E 13 15 7 8 1018.4 1016.1 0.0
21/12:30am 22.0 22.0 17.2 74 3.0 E 13 19 7 10 1018.6 1016.3 0.0
21/12:00am 22.4 22.0 17.1 72 3.3 E 15 20 8 11 1018.7 1016.4 0.0
 
Date/Time
EST
Temp
°C
App
Temp
°C
Dew
Point
°C
Rel
Hum
%
Delta-T
°C
Wind Press
QNH
hPa
Press
MSL
hPa
Rain since
9am
mm
Dir  Spd
km/h
Gust
km/h
Spd
kts
Gust
kts
20/11:30pm 22.8 22.0 17.0 70 3.6 E 17 22 9 12 1018.9 1016.6 0.0
20/11:00pm 23.3 22.1 17.1 68 3.9 ENE 19 26 10 14 1019.1 1016.8 0.0
20/10:30pm 23.8 22.3 16.8 65 4.4 ENE 20 28 11 15 1019.2 1016.9 0.0
20/10:00pm 24.2 22.7 16.7 63 4.7 E 20 26 11 14 1019.3 1017.0 0.0
20/09:30pm 24.8 22.6 16.8 61 5.0 E 24 32 13 17 1019.2 1016.9 0.0
20/09:00pm 25.5 23.9 16.4 57 5.7 ENE 20 30 11 16 1018.9 1016.6 0.0
20/08:30pm 26.3 22.9 14.7 48 7.1 ENE 26 32 14 17 1018.4 1016.1 0.0
20/08:00pm 27.1 23.2 14.5 46 7.7 NE 28 37 15 20 1017.8 1015.5 0.0
20/07:30pm 27.9 23.9 14.2 43 8.3 NE 28 35 15 19 1017.2 1014.9 0.0
20/07:00pm 29.4 25.9 14.4 40 9.2 NE 26 35 14 19 1016.9 1014.6 0.0
20/06:30pm 31.2 27.1 14.8 37 10.2 E 30 39 16 21 1016.3 1014.0 0.0
20/06:00pm 32.6 28.9 13.8 32 11.6 E 26 32 14 17 1015.9 1013.5 0.0
20/05:30pm 33.4 29.9 13.5 30 12.2 E 24 32 13 17 1015.6 1013.2 0.0
20/05:00pm 34.3 30.4 12.0 25 13.5 E 24 33 13 18 1015.4 1013.1 0.0
20/04:30pm 34.6 31.0 12.9 27 13.3 ENE 24 35 13 19 1015.2 1012.9 0.0
20/04:00pm 34.1 30.5 11.9 26 13.4 ENE 22 35 12 19 1015.2 1012.9 0.0
20/03:30pm 35.2 30.4 11.6 24 14.2 ENE 28 39 15 21 1015.3 1013.0 0.0
20/03:00pm 35.3 30.9 10.4 22 14.7 E 24 32 13 17 1015.8 1013.4 0.0
20/02:30pm 34.9 31.1 11.3 24 14.1 ENE 22 41 12 22 1016.2 1013.9 0.0
20/02:00pm 34.5 31.4 13.3 27 13.0 E 22 33 12 18 1016.7 1014.4 0.0
20/01:30pm 34.7 32.4 14.6 30 12.6 E 20 32 11 17 1017.2 1014.9 0.0
20/01:00pm 32.7 30.3 14.3 32 11.4 ENE 20 30 11 16 1017.5 1015.2 0.0
20/12:30pm 32.2 29.6 14.8 35 10.9 E 22 28 12 15 1018.0 1015.7 0.0
20/12:00pm 31.8 28.1 14.9 36 10.5 E 28 35 15 19 1018.4 1016.1 0.0
20/11:30am 31.0 28.4 15.0 38 10.0 E 22 33 12 18 1018.8 1016.5 0.0
20/11:00am 29.9 26.4 15.6 42 9.0 E 28 39 15 21 1019.1 1016.8 0.0
20/10:30am 29.4 26.8 16.9 47 8.0 ENE 26 39 14 21 1019.4 1017.1 0.0
20/10:00am 28.9 26.1 17.4 49 7.4 E 28 35 15 19 1019.7 1017.4 0.0
20/09:30am 28.4 24.8 17.3 51 7.1 E 32 43 17 23 1019.8 1017.5 0.0
20/09:00am 27.0 23.6 17.8 57 5.9 E 32 43 17 23 1019.8 1017.5 0.0
20/08:30am 26.3 22.5 18.2 61 5.2 ESE 35 46 19 25 1020.0 1017.7 0.0
20/08:00am 24.7 19.8 18.2 67 4.2 ESE 41 50 22 27 1019.9 1017.6 0.0
20/07:39am 23.5 20.1 18.2 72 3.4 ESE 33 44 18 24 1019.9 1017.6 0.0
20/07:30am 23.6 20.5 18.5 73 3.3 E 32 41 17 22 1019.9 1017.6 0.0
20/07:00am 22.8 20.6 18.6 77 2.7 ESE 28 35 15 19 1019.5 1017.2 0.0
20/06:56am 22.6 19.5 18.4 77 2.7 ESE 32 41 17 22 1019.4 1017.1 0.0

Other Formats:

Comma delimited format used in spreadsheet applications
http://www.bom.gov.au/fwo/IDQ60801/IDQ60801.94552.axf

JavaScript Object Notation format (JSON) in row-major order
http://www.bom.gov.au/fwo/IDQ60801/IDQ60801.94552.json